Time;durP1;ratioP1;P1;durP2;ratioP2;P2;SDS_P1;SDS_P2;PMS_P1;PMS_P2;Temp;Humidity;BMP_temperature;BMP_pressure;BME280_temperature;BME280_humidity;BME280_pressure;Samples;Min_cycle;Max_cycle;Signal;HPM_P1;HPM_P2
2023/04/23 00:01:19;;;;;;;21.98;17.00;;;12.30;99.90;;;;;;5062982;28;20242;-65
2023/04/23 00:03:49;;;;;;;23.60;18.75;;;12.30;99.90;;;;;;5083753;28;20218;-65
2023/04/23 00:06:17;;;;;;;24.40;18.77;;;12.20;99.90;;;;;;5068659;28;20656;-65
2023/04/23 00:08:45;;;;;;;22.88;18.90;;;12.20;99.90;;;;;;5060014;28;21640;-66
2023/04/23 00:11:12;;;;;;;25.33;19.83;;;12.20;99.90;;;;;;5077636;28;20202;-65
2023/04/23 00:13:39;;;;;;;26.27;20.63;;;12.20;99.90;;;;;;5050826;27;20208;-66
2023/04/23 00:16:09;;;;;;;26.30;20.60;;;12.10;99.90;;;;;;5078935;28;20215;-65
2023/04/23 00:18:36;;;;;;;25.98;20.10;;;12.10;99.90;;;;;;5057577;28;20204;-65
2023/04/23 00:21:04;;;;;;;25.38;19.58;;;12.10;99.90;;;;;;5071054;28;20550;-66
2023/04/23 00:23:31;;;;;;;29.08;20.42;;;12.10;99.90;;;;;;5059048;28;20857;-66
2023/04/23 00:25:58;;;;;;;29.33;21.52;;;12.10;99.90;;;;;;5081920;28;20223;-66
2023/04/23 00:28:25;;;;;;;29.33;21.88;;;12.20;99.90;;;;;;5058520;28;20211;-66
2023/04/23 00:30:51;;;;;;;25.85;20.15;;;12.10;99.90;;;;;;5077359;28;20274;-66
2023/04/23 00:33:18;;;;;;;31.67;21.63;;;12.10;99.90;;;;;;5063000;28;20226;-65
2023/04/23 00:35:45;;;;;;;27.30;20.63;;;12.10;99.90;;;;;;5069617;28;20695;-65
2023/04/23 00:38:13;;;;;;;28.70;20.98;;;12.10;99.90;;;;;;5070168;28;20219;-66
2023/04/23 00:40:40;;;;;;;27.23;20.98;;;12.10;99.90;;;;;;5069427;28;20872;-66
2023/04/23 00:43:08;;;;;;;27.17;20.60;;;12.20;99.90;;;;;;5082086;28;20192;-66
2023/04/23 00:45:35;;;;;;;27.25;20.63;;;12.20;99.90;;;;;;5046745;28;20227;-66
2023/04/23 00:48:02;;;;;;;26.60;20.70;;;12.30;99.90;;;;;;5061863;28;20507;-66
2023/04/23 00:50:29;;;;;;;26.05;19.98;;;12.30;99.90;;;;;;5076304;28;20203;-66
2023/04/23 00:52:56;;;;;;;29.75;20.80;;;12.30;99.90;;;;;;5060349;28;20907;-66
2023/04/23 00:55:24;;;;;;;29.77;21.98;;;12.20;99.90;;;;;;5065753;28;20211;-66
2023/04/23 00:57:52;;;;;;;30.23;22.58;;;12.10;99.90;;;;;;5081498;28;20198;-65
2023/04/23 01:00:20;;;;;;;30.65;22.35;;;12.00;99.90;;;;;;5049604;28;20209;-66
2023/04/23 01:02:48;;;;;;;38.45;22.88;;;11.80;99.90;;;;;;5056213;28;20615;-66
2023/04/23 01:05:17;;;;;;;30.25;22.05;;;11.50;99.90;;;;;;5081234;28;20226;-65
2023/04/23 01:07:45;;;;;;;31.92;21.75;;;11.50;99.90;;;;;;5060940;28;20317;-66
2023/04/23 01:10:12;;;;;;;30.00;20.73;;;11.50;99.90;;;;;;5077196;28;20195;-65
2023/04/23 01:12:40;;;;;;;28.15;19.95;;;11.40;99.90;;;;;;5066905;28;20203;-65
2023/04/23 01:15:09;;;;;;;27.00;18.50;;;11.20;99.90;;;;;;5058018;28;20416;-65
2023/04/23 01:17:35;;;;;;;26.48;19.15;;;11.10;99.90;;;;;;5080828;28;20200;-66
2023/04/23 01:20:05;;;;;;;28.63;19.48;;;11.10;99.90;;;;;;5062378;28;20554;-65
2023/04/23 01:22:33;;;;;;;27.10;19.02;;;11.10;99.90;;;;;;5059624;28;20256;-65
2023/04/23 01:25:00;;;;;;;26.13;18.33;;;11.10;99.90;;;;;;5057121;28;20801;-65
2023/04/23 01:27:27;;;;;;;24.33;17.40;;;11.00;99.90;;;;;;5071167;28;20672;-65
2023/04/23 01:29:55;;;;;;;25.27;17.25;;;11.00;99.90;;;;;;5054496;28;20797;-65
2023/04/23 01:32:22;;;;;;;27.90;16.35;;;10.90;99.90;;;;;;5082177;27;20194;-65
2023/04/23 01:34:52;;;;;;;27.88;17.10;;;10.90;99.90;;;;;;5064415;28;20196;-65
2023/04/23 01:37:20;;;;;;;24.10;17.00;;;10.90;99.90;;;;;;5087027;27;20193;-65
2023/04/23 01:39:48;;;;;;;24.65;16.38;;;10.90;99.90;;;;;;5067571;28;20231;-65
2023/04/23 01:42:15;;;;;;;23.75;15.80;;;10.90;99.90;;;;;;5064739;28;20211;-66
2023/04/23 01:44:42;;;;;;;26.85;16.88;;;10.80;99.90;;;;;;5056017;27;20727;-65
2023/04/23 01:47:10;;;;;;;22.50;16.02;;;10.80;99.90;;;;;;5075327;28;21536;-65
2023/04/23 01:49:36;;;;;;;24.95;15.25;;;10.80;99.90;;;;;;5075694;28;20463;-65
2023/04/23 01:52:03;;;;;;;23.85;15.27;;;10.80;99.90;;;;;;5068076;27;20388;-65
2023/04/23 01:54:30;;;;;;;25.50;15.98;;;10.80;99.90;;;;;;5075609;28;20206;-65
2023/04/23 01:56:59;;;;;;;22.63;15.70;;;10.70;99.90;;;;;;5058997;28;20446;-65
2023/04/23 01:59:25;;;;;;;22.98;15.00;;;10.70;99.90;;;;;;5082889;28;20203;-65
2023/04/23 02:01:52;;;;;;;23.58;15.60;;;10.70;99.90;;;;;;5055390;27;21042;-65
2023/04/23 02:04:19;;;;;;;20.98;15.30;;;10.60;99.90;;;;;;5088124;28;20739;-65
2023/04/23 02:06:49;;;;;;;24.27;15.90;;;10.60;99.90;;;;;;5064459;27;20507;-66
2023/04/23 02:09:15;;;;;;;25.10;15.77;;;10.50;99.90;;;;;;5074444;28;20203;-65
2023/04/23 02:11:42;;;;;;;25.42;16.73;;;10.50;99.90;;;;;;5081788;28;20851;-65
2023/04/23 02:14:11;;;;;;;25.35;14.77;;;10.50;99.90;;;;;;5080039;28;20218;-65
2023/04/23 02:16:38;;;;;;;25.80;15.73;;;10.50;99.90;;;;;;5059411;28;20715;-65
2023/04/23 02:19:05;;;;;;;21.67;15.23;;;10.50;99.90;;;;;;5082873;28;20221;-65
2023/04/23 02:21:32;;;;;;;25.10;15.23;;;10.40;99.90;;;;;;5068296;28;20558;-65
2023/04/23 02:23:58;;;;;;;23.73;15.05;;;10.40;99.90;;;;;;5062719;28;20623;-65
2023/04/23 02:26:26;;;;;;;22.23;15.02;;;10.40;99.90;;;;;;5090597;28;20226;-65
2023/04/23 02:28:52;;;;;;;21.75;14.70;;;10.40;99.90;;;;;;5071114;28;20199;-65
2023/04/23 02:31:21;;;;;;;21.17;14.05;;;10.30;99.90;;;;;;5056098;27;20214;-65
2023/04/23 02:33:47;;;;;;;23.13;15.27;;;10.30;99.90;;;;;;5081327;28;20198;-65
2023/04/23 02:36:14;;;;;;;22.25;15.00;;;10.30;99.90;;;;;;5069352;28;20586;-65
2023/04/23 02:38:43;;;;;;;22.50;14.68;;;10.20;99.90;;;;;;5068817;28;20841;-65
2023/04/23 02:41:10;;;;;;;20.38;14.25;;;10.30;99.90;;;;;;5079014;27;20392;-65
2023/04/23 02:43:37;;;;;;;20.90;14.55;;;10.30;99.90;;;;;;5077365;28;20598;-65
2023/04/23 02:46:07;;;;;;;21.48;14.95;;;10.20;99.90;;;;;;5042421;28;21031;-65
2023/04/23 02:48:37;;;;;;;17.88;12.88;;;10.30;99.90;;;;;;5084235;28;20203;-65
2023/04/23 02:51:04;;;;;;;25.33;14.32;;;10.30;99.90;;;;;;5076371;28;20536;-65
2023/04/23 02:53:30;;;;;;;18.67;12.65;;;10.40;99.90;;;;;;5055508;28;20203;-65
2023/04/23 02:55:57;;;;;;;26.38;14.88;;;10.30;99.90;;;;;;5062402;28;20802;-65
2023/04/23 02:58:25;;;;;;;18.80;12.30;;;10.30;99.90;;;;;;5085651;27;20564;-65
2023/04/23 03:00:52;;;;;;;22.88;12.73;;;10.40;99.90;;;;;;5037956;28;20211;-65
2023/04/23 03:03:19;;;;;;;20.00;13.40;;;10.40;99.90;;;;;;5078231;28;20317;-66
2023/04/23 03:05:47;;;;;;;18.58;13.27;;;10.40;99.90;;;;;;5079773;28;20231;-65
2023/04/23 03:08:14;;;;;;;19.48;12.93;;;10.50;99.90;;;;;;5067417;28;20226;-65
2023/04/23 03:10:41;;;;;;;17.23;12.93;;;10.50;99.90;;;;;;5065165;28;20588;-65
2023/04/23 03:13:08;;;;;;;20.33;13.15;;;10.60;99.90;;;;;;5076506;28;20688;-65
2023/04/23 03:15:35;;;;;;;18.70;10.95;;;10.60;99.90;;;;;;5071275;28;20652;-65
2023/04/23 03:18:03;;;;;;;19.63;11.23;;;10.50;99.90;;;;;;5060034;28;20212;-65
2023/04/23 03:20:30;;;;;;;18.27;12.15;;;10.50;99.90;;;;;;5076839;28;21140;-65
2023/04/23 03:22:58;;;;;;;17.58;11.43;;;10.50;99.90;;;;;;5061815;27;20278;-66
2023/04/23 03:25:25;;;;;;;18.10;11.30;;;10.40;99.90;;;;;;5075167;28;20206;-65
2023/04/23 03:27:52;;;;;;;19.30;12.43;;;10.40;99.90;;;;;;5071413;28;20207;-65
2023/04/23 03:30:20;;;;;;;19.00;12.05;;;10.40;99.90;;;;;;5069101;27;20219;-66
2023/04/23 03:32:46;;;;;;;24.63;13.23;;;10.40;99.90;;;;;;5057127;28;20204;-65
2023/04/23 03:35:13;;;;;;;19.90;12.75;;;10.40;99.90;;;;;;5086001;28;20233;-66
2023/04/23 03:37:40;;;;;;;20.20;13.15;;;10.50;99.90;;;;;;5078341;28;20732;-66
2023/04/23 03:40:09;;;;;;;19.02;12.93;;;10.50;99.90;;;;;;5072030;28;20230;-65
2023/04/23 03:42:36;;;;;;;17.50;12.23;;;10.40;99.90;;;;;;5073818;28;20203;-65
2023/04/23 03:45:04;;;;;;;21.25;13.57;;;10.40;99.90;;;;;;5066288;28;20867;-65
2023/04/23 03:47:31;;;;;;;19.23;12.55;;;10.30;99.90;;;;;;5063470;28;20227;-66
2023/04/23 03:49:57;;;;;;;20.38;12.88;;;10.30;99.90;;;;;;5077108;28;20429;-65
2023/04/23 03:52:24;;;;;;;22.65;13.23;;;10.20;99.90;;;;;;5085782;28;20561;-65
2023/04/23 03:54:51;;;;;;;23.20;13.02;;;10.20;99.90;;;;;;5066700;28;20199;-65
2023/04/23 03:57:21;;;;;;;18.15;11.77;;;10.30;99.90;;;;;;5074441;28;20207;-65
2023/04/23 03:59:48;;;;;;;22.33;13.32;;;10.20;99.90;;;;;;5069320;28;20617;-65
2023/04/23 04:02:14;;;;;;;19.13;12.65;;;10.20;99.90;;;;;;5054919;27;20199;-65
2023/04/23 04:04:44;;;;;;;18.02;13.10;;;10.10;99.90;;;;;;5079559;28;20203;-66
2023/04/23 04:07:12;;;;;;;17.52;12.32;;;10.10;99.90;;;;;;5083057;28;20215;-65
2023/04/23 04:09:38;;;;;;;19.05;13.25;;;10.00;99.90;;;;;;5074830;28;20199;-65
2023/04/23 04:12:06;;;;;;;19.00;13.23;;;10.00;99.90;;;;;;5064163;28;20660;-65
2023/04/23 04:14:34;;;;;;;20.00;13.45;;;9.90;99.90;;;;;;5066294;28;20204;-65
2023/04/23 04:17:00;;;;;;;25.90;14.48;;;9.90;99.90;;;;;;5036327;28;20589;-66
2023/04/23 04:19:27;;;;;;;19.60;13.10;;;9.90;99.90;;;;;;5083787;28;20211;-65
2023/04/23 04:21:55;;;;;;;18.45;12.07;;;10.00;99.90;;;;;;5067402;28;20215;-65
2023/04/23 04:24:24;;;;;;;22.05;13.90;;;10.00;99.90;;;;;;5080430;28;21075;-65
2023/04/23 04:26:52;;;;;;;19.83;12.93;;;10.10;99.90;;;;;;5058895;28;20227;-66
2023/04/23 04:29:20;;;;;;;22.00;12.88;;;10.00;99.90;;;;;;5069095;28;20555;-65
2023/04/23 04:31:48;;;;;;;22.52;14.25;;;10.10;99.90;;;;;;5060909;28;20388;-65
2023/04/23 04:34:16;;;;;;;22.00;13.82;;;10.00;99.90;;;;;;5059169;28;20211;-65
2023/04/23 04:36:43;;;;;;;20.63;14.32;;;10.00;99.90;;;;;;5074721;28;20203;-65
2023/04/23 04:39:12;;;;;;;23.35;14.48;;;10.00;99.90;;;;;;5075104;28;20420;-65
2023/04/23 04:41:39;;;;;;;21.75;14.82;;;10.00;99.90;;;;;;5052810;28;20290;-65
2023/04/23 04:44:07;;;;;;;21.38;14.32;;;10.10;99.90;;;;;;5081593;28;20218;-65
2023/04/23 04:46:33;;;;;;;23.38;14.68;;;10.10;99.90;;;;;;5063063;28;20227;-65
2023/04/23 04:49:02;;;;;;;20.27;14.82;;;10.10;99.90;;;;;;5045309;28;20713;-65
2023/04/23 04:51:28;;;;;;;21.27;14.10;;;10.10;99.90;;;;;;5077032;28;20238;-65
2023/04/23 04:53:55;;;;;;;21.05;14.10;;;10.10;99.90;;;;;;5065505;28;20288;-65
2023/04/23 04:56:22;;;;;;;20.90;14.65;;;10.10;99.90;;;;;;5084130;27;20672;-65
2023/04/23 04:58:49;;;;;;;23.50;14.50;;;10.10;99.90;;;;;;5059939;28;20192;-65
2023/04/23 05:01:17;;;;;;;23.85;14.35;;;10.00;99.90;;;;;;5063523;28;20405;-65
2023/04/23 05:03:44;;;;;;;24.77;14.68;;;10.00;99.90;;;;;;5047863;27;20649;-65
2023/04/23 05:06:12;;;;;;;19.83;13.82;;;10.00;99.90;;;;;;5074563;28;20295;-65
2023/04/23 05:08:40;;;;;;;19.20;13.95;;;10.00;99.90;;;;;;5077463;28;20196;-65
2023/04/23 05:11:07;;;;;;;23.15;14.85;;;10.10;99.90;;;;;;5079416;28;20200;-65
2023/04/23 05:13:34;;;;;;;21.52;14.52;;;10.20;99.90;;;;;;5074845;28;20576;-66
2023/04/23 05:16:00;;;;;;;20.77;14.27;;;10.20;99.90;;;;;;5056334;28;20200;-65
2023/04/23 05:18:28;;;;;;;21.98;14.15;;;10.10;99.90;;;;;;5049858;28;20419;-65
2023/04/23 05:20:55;;;;;;;21.85;14.15;;;10.20;99.90;;;;;;5082515;28;20624;-65
2023/04/23 05:23:23;;;;;;;23.38;14.18;;;10.20;99.90;;;;;;5068004;28;20332;-65
2023/04/23 05:25:52;;;;;;;22.02;15.27;;;10.20;99.90;;;;;;5089110;28;20200;-65
2023/04/23 05:28:18;;;;;;;21.40;14.95;;;10.20;99.70;;;;;;5064274;28;20978;-65
2023/04/23 05:30:45;;;;;;;21.50;14.45;;;10.20;98.60;;;;;;5072963;28;20695;-65
2023/04/23 05:33:12;;;;;;;19.92;13.98;;;10.30;99.40;;;;;;5063022;28;20200;-66
2023/04/23 05:35:39;;;;;;;21.60;15.05;;;10.20;99.00;;;;;;5090619;28;20211;-65
2023/04/23 05:38:06;;;;;;;21.25;15.18;;;10.20;98.70;;;;;;5076752;28;20231;-65
2023/04/23 05:40:34;;;;;;;23.15;14.63;;;10.30;98.70;;;;;;5075922;28;20306;-65
2023/04/23 05:43:01;;;;;;;23.98;15.85;;;10.30;99.20;;;;;;5074065;28;20224;-65
2023/04/23 05:45:28;;;;;;;24.38;15.98;;;10.30;99.40;;;;;;5073202;28;20313;-65
2023/04/23 05:47:55;;;;;;;22.60;15.50;;;10.30;99.40;;;;;;5067895;28;20246;-65
2023/04/23 05:50:22;;;;;;;21.83;15.25;;;10.30;99.90;;;;;;5062372;27;20723;-65
2023/04/23 05:52:49;;;;;;;23.00;15.18;;;10.40;99.40;;;;;;5086444;28;20200;-65
2023/04/23 05:55:17;;;;;;;19.98;14.50;;;10.50;99.20;;;;;;5079213;28;20230;-65
2023/04/23 05:57:45;;;;;;;26.33;16.08;;;10.50;99.10;;;;;;5079198;28;20641;-65
2023/04/23 06:00:12;;;;;;;22.70;15.00;;;10.50;99.10;;;;;;5056063;28;20207;-65
2023/04/23 06:02:40;;;;;;;23.50;16.20;;;10.50;99.10;;;;;;5070908;28;20222;-65
2023/04/23 06:05:07;;;;;;;21.83;14.95;;;10.50;99.10;;;;;;5066970;27;20684;-65
2023/04/23 06:07:34;;;;;;;25.10;16.17;;;10.60;99.10;;;;;;5079401;27;20226;-65
2023/04/23 06:10:01;;;;;;;22.45;15.68;;;10.50;99.80;;;;;;5084875;27;20199;-65
2023/04/23 06:12:28;;;;;;;25.00;15.82;;;10.50;99.90;;;;;;5077853;28;20199;-65
2023/04/23 06:14:56;;;;;;;24.15;15.80;;;10.60;99.90;;;;;;5073323;28;20212;-65
2023/04/23 06:17:23;;;;;;;24.10;15.80;;;10.60;99.90;;;;;;5070706;27;22134;-65
2023/04/23 06:19:51;;;;;;;25.67;16.35;;;10.60;99.90;;;;;;5085256;28;20200;-65
2023/04/23 06:22:18;;;;;;;21.95;14.98;;;10.50;99.90;;;;;;5057328;28;20203;-65
2023/04/23 06:24:45;;;;;;;25.77;16.30;;;10.70;99.90;;;;;;5087180;28;20588;-65
2023/04/23 06:27:12;;;;;;;25.13;16.15;;;10.70;99.90;;;;;;5074418;28;20231;-66
2023/04/23 06:29:39;;;;;;;22.95;16.75;;;10.80;99.90;;;;;;5050402;28;20692;-65
2023/04/23 06:32:07;;;;;;;25.90;15.95;;;11.00;98.70;;;;;;5063588;28;20808;-65
2023/04/23 06:34:34;;;;;;;25.73;17.25;;;11.00;98.50;;;;;;5060386;28;20224;-65
2023/04/23 06:37:01;;;;;;;27.30;16.75;;;11.00;97.60;;;;;;5062073;27;20200;-65
2023/04/23 06:39:28;;;;;;;23.45;17.00;;;11.10;97.60;;;;;;5066160;28;20525;-65
2023/04/23 06:41:55;;;;;;;25.75;17.13;;;11.10;97.10;;;;;;5081595;28;20203;-65
2023/04/23 06:44:22;;;;;;;25.05;17.63;;;11.10;96.30;;;;;;5075338;28;20776;-66
2023/04/23 06:46:48;;;;;;;25.48;17.38;;;11.10;96.10;;;;;;5062384;28;20219;-65
2023/04/23 06:49:17;;;;;;;25.67;16.55;;;11.20;94.90;;;;;;5061047;28;20711;-66
2023/04/23 06:51:44;;;;;;;22.85;17.05;;;11.20;93.60;;;;;;5074319;28;20188;-65
2023/04/23 06:54:10;;;;;;;23.50;16.23;;;11.20;91.20;;;;;;5055838;28;20211;-65
2023/04/23 06:56:37;;;;;;;25.05;17.38;;;11.30;91.80;;;;;;5080532;28;20192;-65
2023/04/23 06:59:05;;;;;;;26.90;16.85;;;11.30;91.10;;;;;;5082675;28;20214;-65
2023/04/23 07:01:32;;;;;;;25.58;16.92;;;11.30;87.80;;;;;;5038999;28;21789;-66
2023/04/23 07:03:59;;;;;;;26.73;16.98;;;11.30;85.40;;;;;;5039159;28;20315;-66
2023/04/23 07:06:28;;;;;;;24.30;17.02;;;11.40;85.20;;;;;;5049247;28;20235;-66
2023/04/23 07:08:54;;;;;;;21.85;16.40;;;11.30;80.50;;;;;;5039538;28;20223;-66
2023/04/23 07:11:21;;;;;;;23.83;15.68;;;11.40;77.20;;;;;;5075332;28;20356;-66
2023/04/23 07:13:48;;;;;;;21.13;14.85;;;11.30;76.90;;;;;;5074407;28;20199;-65
2023/04/23 07:16:15;;;;;;;25.95;16.83;;;11.40;73.50;;;;;;5044644;28;20443;-66
2023/04/23 07:18:42;;;;;;;24.48;15.98;;;11.40;73.90;;;;;;5076303;28;20196;-65
2023/04/23 07:21:09;;;;;;;24.10;16.55;;;11.40;73.20;;;;;;5044522;28;20605;-65
2023/04/23 07:23:37;;;;;;;25.98;16.30;;;11.60;74.60;;;;;;5057370;28;20215;-66
2023/04/23 07:26:03;;;;;;;21.92;15.80;;;11.60;75.90;;;;;;5061354;28;20376;-66
2023/04/23 07:28:31;;;;;;;25.95;16.25;;;11.70;70.80;;;;;;5057992;28;20497;-66
2023/04/23 07:30:57;;;;;;;22.25;16.58;;;11.70;61.90;;;;;;5035747;28;20207;-66
2023/04/23 07:33:25;;;;;;;25.13;16.83;;;11.70;56.60;;;;;;5076012;28;20574;-65
2023/04/23 07:35:51;;;;;;;24.88;16.60;;;11.80;54.10;;;;;;5062031;28;20244;-66
2023/04/23 07:38:18;;;;;;;26.77;16.58;;;11.90;52.10;;;;;;5035237;28;20231;-66
2023/04/23 07:40:47;;;;;;;23.67;16.02;;;11.90;50.50;;;;;;5079288;28;20549;-66
2023/04/23 07:43:15;;;;;;;25.95;17.08;;;12.00;48.80;;;;;;5049624;27;20674;-66
2023/04/23 07:45:42;;;;;;;24.80;16.58;;;12.10;45.60;;;;;;5058333;28;20226;-66
2023/04/23 07:48:09;;;;;;;24.63;16.30;;;12.10;39.30;;;;;;5041907;28;20803;-66
2023/04/23 07:50:36;;;;;;;20.75;15.00;;;12.20;25.20;;;;;;5064032;28;20203;-65
2023/04/23 07:53:03;;;;;;;22.60;14.55;;;12.20;25.50;;;;;;5043249;28;20226;-66
2023/04/23 07:55:30;;;;;;;19.65;14.45;;;12.30;23.10;;;;;;5044560;28;20230;-65
2023/04/23 07:57:58;;;;;;;17.42;12.88;;;12.40;10.20;;;;;;5036020;28;21102;-65
2023/04/23 08:00:25;;;;;;;22.55;14.43;;;12.40;9.90;;;;;;5065655;28;20230;-65
2023/04/23 08:02:53;;;;;;;18.90;13.50;;;12.50;8.40;;;;;;5034253;28;20708;-65
2023/04/23 08:05:20;;;;;;;20.60;14.45;;;12.60;11.40;;;;;;5069646;28;20207;-65
2023/04/23 08:07:47;;;;;;;20.02;14.02;;;12.80;2.90;;;;;;5042827;28;20223;-65
2023/04/23 08:10:14;;;;;;;19.70;13.38;;;12.90;1.00;;;;;;5039626;28;20366;-65
2023/04/23 08:12:41;;;;;;;18.15;12.82;;;13.00;1.00;;;;;;5048963;28;20219;-66
2023/04/23 08:15:10;;;;;;;19.10;12.93;;;13.00;1.00;;;;;;5052063;28;20200;-65
2023/04/23 08:17:37;;;;;;;18.25;13.60;;;12.90;1.00;;;;;;5062788;27;20314;-65
2023/04/23 08:20:06;;;;;;;21.95;12.75;;;12.90;1.00;;;;;;5078717;28;20209;-65
2023/04/23 08:22:33;;;;;;;21.05;13.82;;;12.90;1.00;;;;;;5053747;28;20219;-65
2023/04/23 08:24:59;;;;;;;22.80;14.27;;;12.90;1.00;;;;;;5047599;28;20231;-65
2023/04/23 08:27:26;;;;;;;19.67;13.55;;;13.00;1.00;;;;;;5063180;28;20227;-65
2023/04/23 08:29:53;;;;;;;18.48;12.68;;;13.10;1.00;;;;;;5041509;28;20571;-66
2023/04/23 08:32:21;;;;;;;20.10;12.75;;;13.10;1.00;;;;;;5050351;28;20761;-65
2023/04/23 08:34:48;;;;;;;19.77;13.70;;;13.20;1.00;;;;;;5074842;28;20227;-65
2023/04/23 08:37:15;;;;;;;20.15;13.60;;;13.20;1.00;;;;;;5044517;28;20996;-65
2023/04/23 08:39:41;;;;;;;23.27;15.05;;;13.30;1.00;;;;;;5066199;28;20223;-65
2023/04/23 08:42:13;;;;;;;22.30;14.35;;;13.30;1.00;;;;;;5037091;28;20227;-65
2023/04/23 08:44:42;;;;;;;21.33;14.77;;;13.40;1.00;;;;;;5071943;28;20832;-65
2023/04/23 08:47:12;;;;;;;21.92;14.60;;;13.30;1.00;;;;;;5034426;28;20226;-65
2023/04/23 08:49:43;;;;;;;19.08;12.35;;;13.50;1.00;;;;;;5050484;28;20719;-65
2023/04/23 08:52:16;;;;;;;25.77;13.70;;;13.50;1.00;;;;;;5067795;28;20199;-66
2023/04/23 08:54:49;;;;;;;21.65;14.40;;;13.50;1.00;;;;;;5071749;28;20219;-65
2023/04/23 08:57:17;;;;;;;22.67;14.85;;;13.50;1.00;;;;;;5037149;28;20304;-65
2023/04/23 08:59:45;;;;;;;20.98;13.65;;;13.70;1.00;;;;;;5071078;28;20211;-65
2023/04/23 09:02:12;;;;;;;20.65;14.00;;;13.60;1.00;;;;;;5068124;28;20319;-65
2023/04/23 09:04:40;;;;;;;24.38;14.68;;;13.80;1.00;;;;;;5069727;28;20199;-65
2023/04/23 09:07:10;;;;;;;23.75;14.88;;;13.80;1.00;;;;;;5064040;28;20203;-65
2023/04/23 09:09:37;;;;;;;19.10;14.27;;;13.90;1.00;;;;;;5072799;28;20230;-65
2023/04/23 09:12:06;;;;;;;21.75;14.25;;;14.00;1.00;;;;;;5043985;28;20223;-65
2023/04/23 09:14:32;;;;;;;22.77;14.15;;;14.00;1.00;;;;;;5075348;28;20206;-65
2023/04/23 09:16:59;;;;;;;21.15;13.43;;;14.00;1.00;;;;;;5056485;27;20704;-65
2023/04/23 09:19:29;;;;;;;22.15;14.93;;;14.00;1.00;;;;;;5061532;28;20707;-65
2023/04/23 09:21:58;;;;;;;19.50;13.82;;;14.20;1.00;;;;;;5060601;28;20199;-65
2023/04/23 09:24:25;;;;;;;19.70;13.80;;;14.30;1.00;;;;;;5053645;28;20320;-65
2023/04/23 09:26:53;;;;;;;20.88;14.68;;;14.40;1.00;;;;;;5075056;28;20191;-65
2023/04/23 09:29:22;;;;;;;18.92;14.00;;;14.30;1.00;;;;;;5055485;28;20236;-65
2023/04/23 09:31:51;;;;;;;20.17;12.35;;;14.40;99.90;;;;;;5086502;28;20199;-65
2023/04/23 09:34:18;;;;;;;22.83;13.60;;;14.50;99.90;;;;;;5067674;28;20820;-65
2023/04/23 09:36:45;;;;;;;22.27;14.02;;;14.60;99.90;;;;;;5055748;28;20203;-65
2023/04/23 09:39:15;;;;;;;20.42;14.40;;;14.70;99.90;;;;;;5067561;28;20862;-65
2023/04/23 09:41:42;;;;;;;25.40;13.95;;;14.80;99.90;;;;;;5067950;28;20290;-65
2023/04/23 09:44:11;;;;;;;23.38;15.27;;;14.80;99.90;;;;;;5054885;28;20207;-65
2023/04/23 09:46:39;;;;;;;22.42;14.82;;;14.90;99.90;;;;;;5074696;28;20213;-65
2023/04/23 09:49:07;;;;;;;19.83;13.68;;;14.80;99.90;;;;;;5068181;28;20235;-65
2023/04/23 09:51:36;;;;;;;19.25;13.45;;;14.90;99.90;;;;;;5062297;28;20203;-65
2023/04/23 09:54:03;;;;;;;15.27;11.95;;;15.00;99.90;;;;;;5057012;28;20207;-66
2023/04/23 09:56:32;;;;;;;19.15;13.07;;;15.10;99.90;;;;;;5066925;28;20230;-65
2023/04/23 09:58:59;;;;;;;21.23;14.27;;;15.20;99.90;;;;;;5056979;27;20227;-65
2023/04/23 10:01:29;;;;;;;17.88;12.50;;;15.20;99.90;;;;;;5067648;28;20207;-65
2023/04/23 10:03:56;;;;;;;18.20;13.27;;;15.10;99.90;;;;;;5081765;28;20199;-65
2023/04/23 10:06:30;;;;;;;19.55;12.60;;;15.20;99.90;;;;;;5047599;27;20223;-65
2023/04/23 10:08:58;;;;;;;17.52;13.32;;;15.30;99.90;;;;;;5056515;28;20224;-65
2023/04/23 10:11:25;;;;;;;16.73;11.52;;;15.50;99.90;;;;;;5061844;28;20227;-65
2023/04/23 10:13:55;;;;;;;19.83;12.57;;;15.50;99.90;;;;;;5062623;28;20245;-65
2023/04/23 10:16:22;;;;;;;20.33;13.13;;;15.60;99.90;;;;;;5064706;28;20584;-65
2023/04/23 10:18:52;;;;;;;19.48;13.68;;;15.60;99.90;;;;;;5070985;27;20299;-65
2023/04/23 10:21:20;;;;;;;17.73;13.23;;;15.60;99.90;;;;;;5046830;28;20707;-64
2023/04/23 10:23:49;;;;;;;18.92;12.90;;;15.70;99.90;;;;;;5070695;28;20223;-64
2023/04/23 10:26:17;;;;;;;18.05;13.52;;;15.70;99.90;;;;;;5058614;28;20742;-64
2023/04/23 10:28:48;;;;;;;18.60;13.75;;;15.70;99.90;;;;;;5075090;28;20235;-64
2023/04/23 10:31:18;;;;;;;16.10;12.48;;;15.70;99.90;;;;;;5054669;28;20260;-64
2023/04/23 10:33:49;;;;;;;18.55;12.63;;;15.80;99.90;;;;;;5083124;28;21253;-64
2023/04/23 10:36:17;;;;;;;21.15;12.88;;;15.80;99.90;;;;;;5066506;28;20219;-64
2023/04/23 10:38:45;;;;;;;19.40;13.48;;;15.90;99.90;;;;;;5060079;28;20252;-64
2023/04/23 10:41:15;;;;;;;18.77;12.48;;;16.00;99.90;;;;;;5066425;27;20228;-64
2023/04/23 10:43:42;;;;;;;17.50;12.80;;;16.10;99.90;;;;;;5063679;28;20976;-64
2023/04/23 10:49:14;;;;;;;15.02;11.25;;;16.10;99.90;;;;;;5083830;27;20680;-64
2023/04/23 10:51:42;;;;;;;16.85;11.25;;;16.20;99.90;;;;;;5076576;27;20229;-64
2023/04/23 10:54:10;;;;;;;17.90;12.55;;;16.20;99.90;;;;;;5056688;27;20224;-64
2023/04/23 10:56:38;;;;;;;19.17;12.65;;;16.30;99.90;;;;;;5051151;27;20568;-64
2023/04/23 10:59:08;;;;;;;17.40;12.10;;;16.30;99.90;;;;;;5056842;27;21419;-64
2023/04/23 11:01:35;;;;;;;16.70;12.63;;;16.30;99.90;;;;;;5034209;27;20259;-64
2023/04/23 11:04:21;;;;;;;16.98;13.40;;;16.30;99.90;;;;;;5050587;27;20237;-64
2023/04/23 11:06:56;;;;;;;18.98;13.75;;;16.30;99.90;;;;;;5053265;27;20250;-65
2023/04/23 11:09:30;;;;;;;16.05;12.40;;;16.40;99.90;;;;;;5044472;27;20203;-64
2023/04/23 11:11:57;;;;;;;17.30;12.25;;;16.50;99.90;;;;;;5073706;27;20222;-64
2023/04/23 11:14:35;;;;;;;17.52;11.93;;;16.60;99.90;;;;;;5062559;27;21204;-64
2023/04/23 11:17:03;;;;;;;16.80;12.15;;;16.70;99.90;;;;;;5057523;27;20421;-64
2023/04/23 11:19:31;;;;;;;15.73;11.65;;;16.60;99.90;;;;;;5071535;27;20202;-64
2023/04/23 11:22:03;;;;;;;14.48;11.65;;;16.50;99.90;;;;;;5067263;27;20229;-64
2023/04/23 11:24:31;;;;;;;17.33;10.98;;;16.60;99.90;;;;;;5056716;27;20223;-64
2023/04/23 11:26:59;;;;;;;16.88;10.57;;;16.60;99.90;;;;;;5068414;27;20448;-64
2023/04/23 11:29:27;;;;;;;13.90;10.55;;;16.60;99.90;;;;;;5060325;27;20816;-64
2023/04/23 11:31:54;;;;;;;12.52;10.23;;;16.70;99.90;;;;;;5052382;27;20229;-64
2023/04/23 11:34:23;;;;;;;15.32;11.30;;;16.60;99.90;;;;;;5054779;27;20218;-64
2023/04/23 11:36:53;;;;;;;13.38;10.27;;;16.70;99.90;;;;;;5076209;27;20201;-64
2023/04/23 11:39:22;;;;;;;14.15;10.23;;;16.90;99.90;;;;;;5065602;27;20203;-64
2023/04/23 11:41:51;;;;;;;12.88;10.23;;;16.90;99.90;;;;;;5020843;27;20638;-64
2023/04/23 11:44:18;;;;;;;13.02;9.93;;;17.00;99.90;;;;;;5060245;27;20233;-64
2023/04/23 11:46:47;;;;;;;14.57;10.68;;;17.00;99.90;;;;;;5025581;27;20225;-64
2023/04/23 11:49:14;;;;;;;13.45;9.90;;;17.00;99.90;;;;;;5082361;27;20234;-64
2023/04/23 11:51:43;;;;;;;14.05;10.20;;;17.00;99.90;;;;;;5055645;27;20625;-64
2023/04/23 11:54:12;;;;;;;12.82;9.73;;;17.00;99.90;;;;;;5056995;27;20224;-64
2023/04/23 11:56:39;;;;;;;15.10;9.95;;;17.00;99.90;;;;;;5068856;27;20226;-64
2023/04/23 11:59:06;;;;;;;16.73;10.80;;;17.00;99.90;;;;;;5067643;27;20234;-64
2023/04/23 12:01:44;;;;;;;13.75;10.50;;;16.90;99.90;;;;;;5035464;27;20879;-64
2023/04/23 12:04:15;;;;;;;16.67;10.40;;;16.90;99.90;;;;;;5082578;27;20606;-64
2023/04/23 12:06:44;;;;;;;19.58;10.68;;;16.80;99.90;;;;;;5069160;27;20192;-64
2023/04/23 12:09:13;;;;;;;12.68;10.40;;;16.80;99.90;;;;;;5070814;27;20246;-64
2023/04/23 12:11:41;;;;;;;13.77;8.77;;;16.80;99.90;;;;;;5052608;27;20223;-64
2023/04/23 12:14:08;;;;;;;11.68;9.60;;;17.00;99.90;;;;;;5064729;27;20224;-64
2023/04/23 12:16:40;;;;;;;13.40;9.48;;;17.10;99.90;;;;;;5040017;27;20219;-65
2023/04/23 12:19:13;;;;;;;15.25;10.07;;;17.20;99.90;;;;;;5060404;27;20204;-64
2023/04/23 12:21:53;;;;;;;12.63;9.13;;;17.20;99.90;;;;;;5045256;27;21310;-64
2023/04/23 12:24:22;;;;;;;10.88;9.10;;;17.00;99.90;;;;;;5048439;27;20237;-64
2023/04/23 12:26:53;;;;;;;12.38;8.50;;;17.00;99.90;;;;;;5047846;27;20988;-65
2023/04/23 12:29:21;;;;;;;13.43;9.45;;;17.10;99.90;;;;;;5040769;27;20231;-64
2023/04/23 12:31:49;;;;;;;9.57;7.93;;;17.10;99.90;;;;;;5039149;28;20336;-64
2023/04/23 12:34:16;;;;;;;9.40;7.30;;;17.20;99.90;;;;;;5041702;27;20232;-65